sensor_id;sensor_type;location;lat;lon;timestamp;pressure;altitude;pressure_sealevel;temperature;humidity
9672;BME280;4874;43.568;27.824;2023-04-09T00:02:09;99508.94;;;6.21;100.00
9672;BME280;4874;43.568;27.824;2023-04-09T00:04:36;99508.22;;;6.19;100.00
9672;BME280;4874;43.568;27.824;2023-04-09T00:07:02;99506.31;;;5.81;100.00
9672;BME280;4874;43.568;27.824;2023-04-09T00:09:29;99507.78;;;5.73;100.00
9672;BME280;4874;43.568;27.824;2023-04-09T00:11:56;99504.16;;;5.61;100.00
9672;BME280;4874;43.568;27.824;2023-04-09T00:14:23;99512.25;;;5.58;100.00
9672;BME280;4874;43.568;27.824;2023-04-09T00:16:50;99523.53;;;5.34;100.00
9672;BME280;4874;43.568;27.824;2023-04-09T00:19:17;99517.22;;;5.63;100.00
9672;BME280;4874;43.568;27.824;2023-04-09T00:21:46;99515.72;;;5.59;100.00
9672;BME280;4874;43.568;27.824;2023-04-09T00:24:13;99503.78;;;5.80;100.00
9672;BME280;4874;43.568;27.824;2023-04-09T00:26:40;99506.94;;;5.72;100.00
9672;BME280;4874;43.568;27.824;2023-04-09T00:29:07;99513.97;;;5.45;100.00
9672;BME280;4874;43.568;27.824;2023-04-09T00:31:34;99514.22;;;5.81;100.00
9672;BME280;4874;43.568;27.824;2023-04-09T00:34:00;99511.97;;;5.89;100.00
9672;BME280;4874;43.568;27.824;2023-04-09T00:36:27;99513.56;;;5.65;100.00
9672;BME280;4874;43.568;27.824;2023-04-09T00:38:54;99507.69;;;5.48;100.00
9672;BME280;4874;43.568;27.824;2023-04-09T00:41:21;99515.69;;;5.46;100.00
9672;BME280;4874;43.568;27.824;2023-04-09T00:43:47;99513.59;;;5.51;100.00
9672;BME280;4874;43.568;27.824;2023-04-09T00:46:14;99474.28;;;4.95;100.00
9672;BME280;4874;43.568;27.824;2023-04-09T00:48:41;99514.91;;;5.18;100.00
9672;BME280;4874;43.568;27.824;2023-04-09T00:51:08;99478.13;;;4.90;100.00
9672;BME280;4874;43.568;27.824;2023-04-09T00:53:35;99472.97;;;4.88;100.00
9672;BME280;4874;43.568;27.824;2023-04-09T00:56:03;99520.66;;;5.10;100.00
9672;BME280;4874;43.568;27.824;2023-04-09T00:58:30;99483.00;;;4.96;100.00
9672;BME280;4874;43.568;27.824;2023-04-09T01:00:57;99516.03;;;5.28;100.00
9672;BME280;4874;43.568;27.824;2023-04-09T01:03:24;99510.25;;;5.09;100.00
9672;BME280;4874;43.568;27.824;2023-04-09T01:06:03;99507.38;;;5.26;100.00
9672;BME280;4874;43.568;27.824;2023-04-09T01:14:33;99513.84;;;5.34;100.00
9672;BME280;4874;43.568;27.824;2023-04-09T01:17:13;99511.31;;;5.33;100.00
9672;BME280;4874;43.568;27.824;2023-04-09T01:19:50;99512.84;;;5.49;100.00
9672;BME280;4874;43.568;27.824;2023-04-09T01:25:33;99512.75;;;5.24;100.00
9672;BME280;4874;43.568;27.824;2023-04-09T01:28:13;99519.94;;;5.35;100.00
9672;BME280;4874;43.568;27.824;2023-04-09T01:30:43;99475.72;;;4.87;100.00
9672;BME280;4874;43.568;27.824;2023-04-09T01:33:14;99521.28;;;5.28;100.00
9672;BME280;4874;43.568;27.824;2023-04-09T01:35:43;99517.78;;;4.87;100.00
9672;BME280;4874;43.568;27.824;2023-04-09T01:38:13;99526.16;;;4.93;100.00
9672;BME280;4874;43.568;27.824;2023-04-09T01:40:41;99518.88;;;5.11;100.00
9672;BME280;4874;43.568;27.824;2023-04-09T01:43:09;99521.03;;;5.18;100.00
9672;BME280;4874;43.568;27.824;2023-04-09T01:45:37;99521.09;;;4.76;100.00
9672;BME280;4874;43.568;27.824;2023-04-09T01:48:04;99523.06;;;4.58;100.00
9672;BME280;4874;43.568;27.824;2023-04-09T01:50:32;99520.22;;;5.04;100.00
9672;BME280;4874;43.568;27.824;2023-04-09T01:52:59;99501.47;;;4.82;100.00
9672;BME280;4874;43.568;27.824;2023-04-09T01:55:26;99514.41;;;4.70;100.00
9672;BME280;4874;43.568;27.824;2023-04-09T01:57:53;99510.84;;;4.57;100.00
9672;BME280;4874;43.568;27.824;2023-04-09T02:00:20;99525.84;;;4.83;100.00
9672;BME280;4874;43.568;27.824;2023-04-09T02:03:48;99523.63;;;4.77;100.00
9672;BME280;4874;43.568;27.824;2023-04-09T02:08:34;99524.53;;;4.76;100.00
9672;BME280;4874;43.568;27.824;2023-04-09T02:11:04;99520.13;;;4.77;100.00
9672;BME280;4874;43.568;27.824;2023-04-09T02:13:32;99519.09;;;4.65;100.00
9672;BME280;4874;43.568;27.824;2023-04-09T02:16:00;99523.88;;;4.87;100.00
9672;BME280;4874;43.568;27.824;2023-04-09T02:18:29;99522.66;;;4.78;100.00
9672;BME280;4874;43.568;27.824;2023-04-09T02:20:57;99532.34;;;4.64;100.00
9672;BME280;4874;43.568;27.824;2023-04-09T02:23:25;99528.84;;;4.49;100.00
9672;BME280;4874;43.568;27.824;2023-04-09T02:25:53;99515.44;;;4.40;100.00
9672;BME280;4874;43.568;27.824;2023-04-09T02:28:19;99517.44;;;4.64;100.00
9672;BME280;4874;43.568;27.824;2023-04-09T02:30:46;99517.69;;;4.46;100.00
9672;BME280;4874;43.568;27.824;2023-04-09T02:33:13;99517.41;;;4.36;100.00
9672;BME280;4874;43.568;27.824;2023-04-09T02:35:39;99519.38;;;4.33;100.00
9672;BME280;4874;43.568;27.824;2023-04-09T02:38:07;99508.94;;;4.31;100.00
9672;BME280;4874;43.568;27.824;2023-04-09T02:40:39;99522.06;;;4.17;100.00
9672;BME280;4874;43.568;27.824;2023-04-09T02:43:07;99524.63;;;4.33;100.00
9672;BME280;4874;43.568;27.824;2023-04-09T02:45:34;99524.00;;;4.43;100.00
9672;BME280;4874;43.568;27.824;2023-04-09T02:48:01;99518.59;;;4.17;100.00
9672;BME280;4874;43.568;27.824;2023-04-09T02:50:28;99525.81;;;4.27;100.00
9672;BME280;4874;43.568;27.824;2023-04-09T02:52:54;99526.41;;;4.46;100.00
9672;BME280;4874;43.568;27.824;2023-04-09T02:55:21;99528.19;;;4.46;100.00
9672;BME280;4874;43.568;27.824;2023-04-09T02:57:48;99533.19;;;4.50;100.00
9672;BME280;4874;43.568;27.824;2023-04-09T03:00:14;99484.75;;;4.26;100.00
9672;BME280;4874;43.568;27.824;2023-04-09T03:02:41;99534.13;;;4.63;100.00
9672;BME280;4874;43.568;27.824;2023-04-09T03:05:08;99535.25;;;4.45;100.00
9672;BME280;4874;43.568;27.824;2023-04-09T03:07:35;99538.03;;;4.42;100.00
9672;BME280;4874;43.568;27.824;2023-04-09T03:10:02;99507.59;;;4.10;100.00
9672;BME280;4874;43.568;27.824;2023-04-09T03:12:28;99531.31;;;4.38;100.00
9672;BME280;4874;43.568;27.824;2023-04-09T03:14:55;99536.72;;;4.35;100.00
9672;BME280;4874;43.568;27.824;2023-04-09T03:17:22;99540.13;;;4.51;100.00
9672;BME280;4874;43.568;27.824;2023-04-09T03:19:52;99508.38;;;4.26;100.00
9672;BME280;4874;43.568;27.824;2023-04-09T03:22:19;99535.50;;;4.41;100.00
9672;BME280;4874;43.568;27.824;2023-04-09T03:24:46;99538.63;;;4.33;100.00
9672;BME280;4874;43.568;27.824;2023-04-09T03:27:13;99535.41;;;4.42;100.00
9672;BME280;4874;43.568;27.824;2023-04-09T03:29:39;99495.75;;;4.03;100.00
9672;BME280;4874;43.568;27.824;2023-04-09T03:32:06;99530.53;;;4.22;100.00
9672;BME280;4874;43.568;27.824;2023-04-09T03:34:33;99534.63;;;4.12;100.00
9672;BME280;4874;43.568;27.824;2023-04-09T03:36:59;99551.34;;;4.11;100.00
9672;BME280;4874;43.568;27.824;2023-04-09T03:39:26;99534.00;;;4.23;100.00
9672;BME280;4874;43.568;27.824;2023-04-09T03:41:57;99529.16;;;4.01;100.00
9672;BME280;4874;43.568;27.824;2023-04-09T03:44:24;99534.84;;;4.23;100.00
9672;BME280;4874;43.568;27.824;2023-04-09T03:46:51;99535.19;;;4.17;100.00
9672;BME280;4874;43.568;27.824;2023-04-09T03:49:18;99541.13;;;4.21;100.00
9672;BME280;4874;43.568;27.824;2023-04-09T03:51:44;99548.25;;;4.19;100.00
9672;BME280;4874;43.568;27.824;2023-04-09T03:54:11;99542.16;;;3.89;100.00
9672;BME280;4874;43.568;27.824;2023-04-09T03:56:38;99544.31;;;3.96;100.00
9672;BME280;4874;43.568;27.824;2023-04-09T03:59:05;99519.53;;;4.16;100.00
9672;BME280;4874;43.568;27.824;2023-04-09T04:01:31;99541.00;;;4.08;100.00
9672;BME280;4874;43.568;27.824;2023-04-09T04:03:59;99538.94;;;4.13;100.00
9672;BME280;4874;43.568;27.824;2023-04-09T04:06:25;99551.50;;;4.08;100.00
9672;BME280;4874;43.568;27.824;2023-04-09T04:08:53;99540.41;;;4.03;100.00
9672;BME280;4874;43.568;27.824;2023-04-09T04:11:20;99539.97;;;4.11;100.00
9672;BME280;4874;43.568;27.824;2023-04-09T04:13:46;99539.84;;;3.98;100.00
9672;BME280;4874;43.568;27.824;2023-04-09T04:16:13;99537.59;;;4.06;100.00
9672;BME280;4874;43.568;27.824;2023-04-09T04:18:40;99537.63;;;4.20;100.00
9672;BME280;4874;43.568;27.824;2023-04-09T04:21:12;99542.13;;;4.18;100.00
9672;BME280;4874;43.568;27.824;2023-04-09T04:23:39;99545.56;;;4.48;100.00
9672;BME280;4874;43.568;27.824;2023-04-09T04:26:09;99534.94;;;4.36;100.00
9672;BME280;4874;43.568;27.824;2023-04-09T04:28:37;99529.78;;;4.34;100.00
9672;BME280;4874;43.568;27.824;2023-04-09T04:31:11;99531.47;;;4.35;100.00
9672;BME280;4874;43.568;27.824;2023-04-09T04:33:39;99523.00;;;4.30;100.00
9672;BME280;4874;43.568;27.824;2023-04-09T04:36:15;99515.06;;;4.46;100.00
9672;BME280;4874;43.568;27.824;2023-04-09T04:38:42;99547.53;;;4.31;100.00
9672;BME280;4874;43.568;27.824;2023-04-09T04:41:09;99531.84;;;4.29;100.00
9672;BME280;4874;43.568;27.824;2023-04-09T04:43:36;99517.00;;;4.14;100.00
9672;BME280;4874;43.568;27.824;2023-04-09T04:46:03;99565.25;;;4.27;100.00
9672;BME280;4874;43.568;27.824;2023-04-09T04:48:31;99543.53;;;4.10;100.00
9672;BME280;4874;43.568;27.824;2023-04-09T04:50:59;99549.28;;;4.30;100.00
9672;BME280;4874;43.568;27.824;2023-04-09T04:53:26;99548.56;;;4.42;100.00
9672;BME280;4874;43.568;27.824;2023-04-09T04:55:53;99554.25;;;3.91;100.00
9672;BME280;4874;43.568;27.824;2023-04-09T04:58:20;99561.84;;;3.66;100.00
9672;BME280;4874;43.568;27.824;2023-04-09T05:00:47;99529.38;;;3.83;100.00
9672;BME280;4874;43.568;27.824;2023-04-09T05:03:13;99555.50;;;4.00;100.00
9672;BME280;4874;43.568;27.824;2023-04-09T05:05:40;99564.09;;;3.88;100.00
9672;BME280;4874;43.568;27.824;2023-04-09T05:08:07;99554.22;;;4.07;100.00
9672;BME280;4874;43.568;27.824;2023-04-09T05:10:33;99560.00;;;4.27;100.00
9672;BME280;4874;43.568;27.824;2023-04-09T05:13:00;99556.09;;;4.05;100.00
9672;BME280;4874;43.568;27.824;2023-04-09T05:15:27;99555.13;;;4.35;100.00
9672;BME280;4874;43.568;27.824;2023-04-09T05:17:54;99551.03;;;4.45;100.00
9672;BME280;4874;43.568;27.824;2023-04-09T05:20:20;99523.28;;;4.26;100.00
9672;BME280;4874;43.568;27.824;2023-04-09T05:22:47;99545.59;;;4.62;100.00
9672;BME280;4874;43.568;27.824;2023-04-09T05:25:14;99557.06;;;4.90;100.00
9672;BME280;4874;43.568;27.824;2023-04-09T05:27:41;99528.22;;;4.74;100.00
9672;BME280;4874;43.568;27.824;2023-04-09T05:30:08;99562.56;;;5.27;100.00
9672;BME280;4874;43.568;27.824;2023-04-09T05:32:36;99543.69;;;5.21;100.00
9672;BME280;4874;43.568;27.824;2023-04-09T05:35:03;99560.41;;;5.20;100.00
9672;BME280;4874;43.568;27.824;2023-04-09T05:37:30;99564.19;;;5.16;100.00
9672;BME280;4874;43.568;27.824;2023-04-09T05:39:57;99565.53;;;5.35;100.00
9672;BME280;4874;43.568;27.824;2023-04-09T05:42:24;99553.78;;;5.41;100.00
9672;BME280;4874;43.568;27.824;2023-04-09T05:44:51;99566.50;;;5.61;100.00
9672;BME280;4874;43.568;27.824;2023-04-09T05:47:17;99568.78;;;5.53;100.00
9672;BME280;4874;43.568;27.824;2023-04-09T05:49:44;99568.00;;;5.65;100.00
9672;BME280;4874;43.568;27.824;2023-04-09T05:52:11;99567.88;;;5.80;100.00
9672;BME280;4874;43.568;27.824;2023-04-09T05:54:38;99566.69;;;5.98;100.00
9672;BME280;4874;43.568;27.824;2023-04-09T05:57:04;99558.16;;;6.08;100.00
9672;BME280;4874;43.568;27.824;2023-04-09T05:59:31;99530.16;;;6.32;100.00
9672;BME280;4874;43.568;27.824;2023-04-09T06:01:58;99558.13;;;6.84;100.00
9672;BME280;4874;43.568;27.824;2023-04-09T06:04:24;99552.56;;;6.89;100.00
9672;BME280;4874;43.568;27.824;2023-04-09T06:06:51;99556.22;;;6.86;100.00
9672;BME280;4874;43.568;27.824;2023-04-09T06:09:18;99517.69;;;6.96;100.00
9672;BME280;4874;43.568;27.824;2023-04-09T06:11:45;99548.91;;;7.75;100.00
9672;BME280;4874;43.568;27.824;2023-04-09T06:14:11;99521.69;;;8.09;100.00
9672;BME280;4874;43.568;27.824;2023-04-09T06:16:41;99513.16;;;7.82;100.00
9672;BME280;4874;43.568;27.824;2023-04-09T06:19:08;99549.91;;;8.89;100.00
9672;BME280;4874;43.568;27.824;2023-04-09T06:21:35;99559.03;;;9.18;100.00
9672;BME280;4874;43.568;27.824;2023-04-09T06:24:01;99534.25;;;8.97;100.00
9672;BME280;4874;43.568;27.824;2023-04-09T06:26:28;99561.59;;;9.08;100.00
9672;BME280;4874;43.568;27.824;2023-04-09T06:28:55;99559.91;;;9.18;100.00
9672;BME280;4874;43.568;27.824;2023-04-09T06:31:21;99502.13;;;8.90;100.00
9672;BME280;4874;43.568;27.824;2023-04-09T06:33:48;99562.97;;;9.57;100.00
9672;BME280;4874;43.568;27.824;2023-04-09T06:36:15;99554.00;;;10.43;100.00
9672;BME280;4874;43.568;27.824;2023-04-09T06:38:41;99552.84;;;10.36;100.00
9672;BME280;4874;43.568;27.824;2023-04-09T06:41:08;99555.00;;;11.23;100.00
9672;BME280;4874;43.568;27.824;2023-04-09T06:43:38;99541.63;;;10.74;100.00
9672;BME280;4874;43.568;27.824;2023-04-09T06:46:04;99551.31;;;11.54;100.00
9672;BME280;4874;43.568;27.824;2023-04-09T06:48:31;99553.66;;;10.98;100.00
9672;BME280;4874;43.568;27.824;2023-04-09T06:50:57;99553.13;;;10.84;100.00
9672;BME280;4874;43.568;27.824;2023-04-09T06:53:24;99553.97;;;11.54;100.00
9672;BME280;4874;43.568;27.824;2023-04-09T06:55:51;99555.72;;;11.64;100.00
9672;BME280;4874;43.568;27.824;2023-04-09T06:58:18;99549.31;;;11.76;100.00
9672;BME280;4874;43.568;27.824;2023-04-09T07:00:44;99550.47;;;12.03;100.00
9672;BME280;4874;43.568;27.824;2023-04-09T07:03:11;99548.91;;;12.00;100.00
9672;BME280;4874;43.568;27.824;2023-04-09T07:05:38;99533.38;;;12.05;100.00
9672;BME280;4874;43.568;27.824;2023-04-09T07:08:04;99547.34;;;12.64;100.00
9672;BME280;4874;43.568;27.824;2023-04-09T07:10:31;99545.09;;;12.69;100.00
9672;BME280;4874;43.568;27.824;2023-04-09T07:12:58;99534.28;;;12.71;100.00
9672;BME280;4874;43.568;27.824;2023-04-09T07:15:25;99536.59;;;12.93;100.00
9672;BME280;4874;43.568;27.824;2023-04-09T07:17:51;99538.63;;;13.28;100.00
9672;BME280;4874;43.568;27.824;2023-04-09T07:20:18;99451.31;;;12.56;100.00
9672;BME280;4874;43.568;27.824;2023-04-09T07:22:45;99543.09;;;13.27;100.00
9672;BME280;4874;43.568;27.824;2023-04-09T07:25:11;99523.00;;;13.60;100.00
9672;BME280;4874;43.568;27.824;2023-04-09T07:27:38;99529.34;;;13.76;100.00
9672;BME280;4874;43.568;27.824;2023-04-09T07:30:05;99509.03;;;13.48;100.00
9672;BME280;4874;43.568;27.824;2023-04-09T07:32:32;99528.78;;;14.00;100.00
9672;BME280;4874;43.568;27.824;2023-04-09T07:34:59;99506.41;;;13.83;100.00
9672;BME280;4874;43.568;27.824;2023-04-09T07:37:27;99539.56;;;14.26;85.46
9672;BME280;4874;43.568;27.824;2023-04-09T07:39:54;99511.47;;;14.90;74.75
9672;BME280;4874;43.568;27.824;2023-04-09T07:42:22;99532.50;;;14.42;72.38
9672;BME280;4874;43.568;27.824;2023-04-09T07:44:48;99529.13;;;14.58;69.73
9672;BME280;4874;43.568;27.824;2023-04-09T07:47:15;99521.44;;;14.37;67.87
9672;BME280;4874;43.568;27.824;2023-04-09T07:49:42;99529.75;;;14.16;67.83
9672;BME280;4874;43.568;27.824;2023-04-09T07:52:08;99521.91;;;14.33;70.09
9672;BME280;4874;43.568;27.824;2023-04-09T07:54:36;99513.28;;;14.39;67.58
9672;BME280;4874;43.568;27.824;2023-04-09T07:57:02;99528.56;;;14.72;64.92
9672;BME280;4874;43.568;27.824;2023-04-09T07:59:29;99533.56;;;15.34;65.31
9672;BME280;4874;43.568;27.824;2023-04-09T08:01:57;99495.66;;;15.80;64.91
9672;BME280;4874;43.568;27.824;2023-04-09T08:04:24;99531.22;;;15.31;64.34
9672;BME280;4874;43.568;27.824;2023-04-09T08:06:51;99486.75;;;13.84;64.75
9672;BME280;4874;43.568;27.824;2023-04-09T08:09:19;99533.75;;;14.99;62.54
9672;BME280;4874;43.568;27.824;2023-04-09T08:11:47;99531.69;;;15.18;57.97
9672;BME280;4874;43.568;27.824;2023-04-09T08:14:15;99523.53;;;14.26;61.88
9672;BME280;4874;43.568;27.824;2023-04-09T08:16:44;99526.78;;;15.40;59.88
9672;BME280;4874;43.568;27.824;2023-04-09T08:19:12;99530.72;;;15.61;59.66
9672;BME280;4874;43.568;27.824;2023-04-09T08:21:40;99523.81;;;14.91;57.84
9672;BME280;4874;43.568;27.824;2023-04-09T08:24:10;99508.41;;;13.37;58.40
9672;BME280;4874;43.568;27.824;2023-04-09T08:26:38;99532.41;;;14.16;58.41
9672;BME280;4874;43.568;27.824;2023-04-09T08:29:05;99525.56;;;15.84;57.47
9672;BME280;4874;43.568;27.824;2023-04-09T08:31:33;99532.38;;;15.54;56.14
9672;BME280;4874;43.568;27.824;2023-04-09T08:34:01;99525.50;;;16.09;54.84
9672;BME280;4874;43.568;27.824;2023-04-09T08:36:28;99531.69;;;16.18;57.33
9672;BME280;4874;43.568;27.824;2023-04-09T08:38:56;99527.16;;;16.18;55.53
9672;BME280;4874;43.568;27.824;2023-04-09T08:41:24;99494.81;;;15.96;54.28
9672;BME280;4874;43.568;27.824;2023-04-09T08:43:52;99524.44;;;14.77;56.50
9672;BME280;4874;43.568;27.824;2023-04-09T08:46:24;99497.25;;;14.64;55.85
9672;BME280;4874;43.568;27.824;2023-04-09T08:48:52;99535.69;;;14.89;56.97
9672;BME280;4874;43.568;27.824;2023-04-09T08:51:21;99531.47;;;15.12;56.08
9672;BME280;4874;43.568;27.824;2023-04-09T08:53:55;99529.28;;;15.91;54.85
9672;BME280;4874;43.568;27.824;2023-04-09T08:56:23;99523.94;;;14.82;53.91
9672;BME280;4874;43.568;27.824;2023-04-09T08:58:50;99527.06;;;13.99;56.57
9672;BME280;4874;43.568;27.824;2023-04-09T09:01:30;99472.56;;;14.01;57.25
9672;BME280;4874;43.568;27.824;2023-04-09T09:04:06;99518.44;;;15.17;56.18
9672;BME280;4874;43.568;27.824;2023-04-09T09:06:36;99430.94;;;14.16;56.56
9672;BME280;4874;43.568;27.824;2023-04-09T09:09:09;99510.13;;;15.54;55.63
9672;BME280;4874;43.568;27.824;2023-04-09T09:11:47;99516.47;;;14.42;55.93
9672;BME280;4874;43.568;27.824;2023-04-09T09:14:19;99507.25;;;14.62;56.56
9672;BME280;4874;43.568;27.824;2023-04-09T09:21:55;99519.47;;;15.16;55.80
9672;BME280;4874;43.568;27.824;2023-04-09T09:24:22;99505.19;;;15.91;54.67
9672;BME280;4874;43.568;27.824;2023-04-09T09:26:50;99519.81;;;16.53;54.50
9672;BME280;4874;43.568;27.824;2023-04-09T09:29:17;99514.78;;;16.74;53.11
9672;BME280;4874;43.568;27.824;2023-04-09T09:31:46;99504.72;;;16.60;51.35
9672;BME280;4874;43.568;27.824;2023-04-09T09:34:15;99491.00;;;17.25;50.44
9672;BME280;4874;43.568;27.824;2023-04-09T09:36:44;99508.41;;;16.26;51.20
9672;BME280;4874;43.568;27.824;2023-04-09T09:39:12;99509.75;;;16.30;52.37
9672;BME280;4874;43.568;27.824;2023-04-09T09:41:39;99514.19;;;17.02;49.09
9672;BME280;4874;43.568;27.824;2023-04-09T09:44:08;99470.91;;;16.10;49.38
9672;BME280;4874;43.568;27.824;2023-04-09T09:46:40;99483.63;;;16.73;50.29
9672;BME280;4874;43.568;27.824;2023-04-09T09:49:08;99499.66;;;16.97;52.02
9672;BME280;4874;43.568;27.824;2023-04-09T09:51:36;99514.09;;;16.80;53.57
9672;BME280;4874;43.568;27.824;2023-04-09T09:54:06;99503.38;;;17.34;52.08
9672;BME280;4874;43.568;27.824;2023-04-09T09:56:38;99495.69;;;17.23;51.99
9672;BME280;4874;43.568;27.824;2023-04-09T09:59:20;99498.66;;;16.82;52.29
9672;BME280;4874;43.568;27.824;2023-04-09T10:02:15;99490.66;;;17.28;51.22
9672;BME280;4874;43.568;27.824;2023-04-09T10:04:44;99488.81;;;17.21;50.82
9672;BME280;4874;43.568;27.824;2023-04-09T10:07:12;99467.53;;;16.65;50.37
9672;BME280;4874;43.568;27.824;2023-04-09T10:09:46;99481.44;;;17.23;51.28
9672;BME280;4874;43.568;27.824;2023-04-09T10:12:14;99482.94;;;16.06;52.75
9672;BME280;4874;43.568;27.824;2023-04-09T10:14:42;99492.28;;;15.86;52.56
9672;BME280;4874;43.568;27.824;2023-04-09T10:17:10;99500.63;;;15.67;52.55
9672;BME280;4874;43.568;27.824;2023-04-09T10:19:41;99493.59;;;15.32;52.17
9672;BME280;4874;43.568;27.824;2023-04-09T10:22:11;99484.44;;;15.93;49.87
9672;BME280;4874;43.568;27.824;2023-04-09T10:24:39;99477.75;;;16.13;51.47
9672;BME280;4874;43.568;27.824;2023-04-09T10:27:14;99480.09;;;16.24;50.64
9672;BME280;4874;43.568;27.824;2023-04-09T10:29:47;99456.94;;;15.51;51.42
9672;BME280;4874;43.568;27.824;2023-04-09T10:32:18;99457.25;;;15.06;52.94
9672;BME280;4874;43.568;27.824;2023-04-09T10:34:47;99446.47;;;16.21;51.56
9672;BME280;4874;43.568;27.824;2023-04-09T10:37:20;99464.66;;;17.29;50.24
9672;BME280;4874;43.568;27.824;2023-04-09T10:39:48;99472.41;;;16.29;49.51
9672;BME280;4874;43.568;27.824;2023-04-09T10:42:19;99484.78;;;15.82;50.43
9672;BME280;4874;43.568;27.824;2023-04-09T10:45:12;99470.53;;;15.89;51.04
9672;BME280;4874;43.568;27.824;2023-04-09T10:47:41;99474.94;;;16.14;51.95
9672;BME280;4874;43.568;27.824;2023-04-09T10:50:25;99473.50;;;15.54;52.35
9672;BME280;4874;43.568;27.824;2023-04-09T10:52:56;99419.94;;;14.63;53.56
9672;BME280;4874;43.568;27.824;2023-04-09T10:55:33;99465.63;;;15.11;53.48
9672;BME280;4874;43.568;27.824;2023-04-09T10:58:05;99426.56;;;14.59;53.04
9672;BME280;4874;43.568;27.824;2023-04-09T11:00:39;99467.19;;;15.71;52.85
9672;BME280;4874;43.568;27.824;2023-04-09T11:03:24;99453.81;;;16.03;53.48
9672;BME280;4874;43.568;27.824;2023-04-09T11:05:56;99465.53;;;15.94;53.75
9672;BME280;4874;43.568;27.824;2023-04-09T11:08:27;99475.75;;;16.23;54.37
9672;BME280;4874;43.568;27.824;2023-04-09T11:10:54;99459.84;;;16.13;52.25
9672;BME280;4874;43.568;27.824;2023-04-09T11:13:24;99440.41;;;15.79;50.89
9672;BME280;4874;43.568;27.824;2023-04-09T11:15:50;99472.88;;;15.34;52.03
9672;BME280;4874;43.568;27.824;2023-04-09T11:18:27;99453.59;;;15.15;52.92
9672;BME280;4874;43.568;27.824;2023-04-09T11:20:59;99454.59;;;15.14;53.99
9672;BME280;4874;43.568;27.824;2023-04-09T11:23:26;99449.13;;;14.56;55.46
9672;BME280;4874;43.568;27.824;2023-04-09T11:25:55;99454.59;;;15.14;55.49
9672;BME280;4874;43.568;27.824;2023-04-09T11:28:22;99460.13;;;15.70;54.26
9672;BME280;4874;43.568;27.824;2023-04-09T11:30:50;99443.59;;;16.07;53.89
9672;BME280;4874;43.568;27.824;2023-04-09T11:33:17;99429.88;;;15.78;54.25
9672;BME280;4874;43.568;27.824;2023-04-09T11:35:45;99442.94;;;15.97;52.98
9672;BME280;4874;43.568;27.824;2023-04-09T11:38:12;99435.91;;;16.28;52.67
9672;BME280;4874;43.568;27.824;2023-04-09T11:40:40;99433.72;;;16.39;52.65
9672;BME280;4874;43.568;27.824;2023-04-09T11:43:14;99418.16;;;16.19;53.91
9672;BME280;4874;43.568;27.824;2023-04-09T11:45:44;99428.47;;;14.41;57.46
9672;BME280;4874;43.568;27.824;2023-04-09T11:48:15;99423.09;;;14.33;59.24
9672;BME280;4874;43.568;27.824;2023-04-09T11:50:44;99422.03;;;15.18;57.36
9672;BME280;4874;43.568;27.824;2023-04-09T11:53:21;99406.44;;;14.21;59.57
9672;BME280;4874;43.568;27.824;2023-04-09T11:55:50;99421.88;;;14.53;59.41
9672;BME280;4874;43.568;27.824;2023-04-09T11:58:21;99425.94;;;14.57;59.98
9672;BME280;4874;43.568;27.824;2023-04-09T12:00:52;99416.72;;;15.34;59.36
9672;BME280;4874;43.568;27.824;2023-04-09T12:03:29;99419.63;;;15.49;59.10
9672;BME280;4874;43.568;27.824;2023-04-09T12:06:02;99422.66;;;15.62;59.29
9672;BME280;4874;43.568;27.824;2023-04-09T12:08:29;99421.47;;;15.57;59.17
9672;BME280;4874;43.568;27.824;2023-04-09T12:11:10;99391.53;;;15.53;59.76
9672;BME280;4874;43.568;27.824;2023-04-09T12:13:37;99413.59;;;15.47;59.34
9672;BME280;4874;43.568;27.824;2023-04-09T12:16:12;99346.03;;;15.69;59.62
9672;BME280;4874;43.568;27.824;2023-04-09T12:18:39;99409.78;;;15.58;60.12
9672;BME280;4874;43.568;27.824;2023-04-09T12:21:06;99355.19;;;14.69;62.03
9672;BME280;4874;43.568;27.824;2023-04-09T12:23:33;99393.56;;;15.51;61.30
9672;BME280;4874;43.568;27.824;2023-04-09T12:26:00;99404.09;;;15.03;61.90
9672;BME280;4874;43.568;27.824;2023-04-09T12:28:27;99399.00;;;14.84;63.24
9672;BME280;4874;43.568;27.824;2023-04-09T12:30:54;99397.09;;;15.92;60.95
9672;BME280;4874;43.568;27.824;2023-04-09T12:33:22;99395.22;;;15.02;60.24
9672;BME280;4874;43.568;27.824;2023-04-09T12:35:48;99389.69;;;16.10;59.39
9672;BME280;4874;43.568;27.824;2023-04-09T12:38:15;99386.00;;;15.55;59.00
9672;BME280;4874;43.568;27.824;2023-04-09T12:40:42;99391.69;;;14.94;57.74
9672;BME280;4874;43.568;27.824;2023-04-09T12:43:09;99385.81;;;15.48;57.96
9672;BME280;4874;43.568;27.824;2023-04-09T12:45:36;99390.34;;;15.40;57.42
9672;BME280;4874;43.568;27.824;2023-04-09T12:48:03;99374.31;;;16.04;57.75
9672;BME280;4874;43.568;27.824;2023-04-09T12:50:30;99387.84;;;16.34;56.58
9672;BME280;4874;43.568;27.824;2023-04-09T12:52:56;99379.81;;;16.26;56.01
9672;BME280;4874;43.568;27.824;2023-04-09T12:55:23;99384.00;;;16.05;55.94
9672;BME280;4874;43.568;27.824;2023-04-09T12:57:50;99383.34;;;15.79;56.07
9672;BME280;4874;43.568;27.824;2023-04-09T13:00:17;99389.19;;;15.82;57.04
9672;BME280;4874;43.568;27.824;2023-04-09T13:02:44;99373.63;;;16.10;56.20
9672;BME280;4874;43.568;27.824;2023-04-09T13:05:11;99378.59;;;16.45;55.61
9672;BME280;4874;43.568;27.824;2023-04-09T13:07:37;99367.94;;;16.21;55.80
9672;BME280;4874;43.568;27.824;2023-04-09T13:10:07;99363.34;;;16.45;55.41
9672;BME280;4874;43.568;27.824;2023-04-09T13:12:33;99362.75;;;16.03;56.97
9672;BME280;4874;43.568;27.824;2023-04-09T13:15:00;99368.06;;;16.52;57.05
9672;BME280;4874;43.568;27.824;2023-04-09T13:17:27;99359.72;;;16.22;57.48
9672;BME280;4874;43.568;27.824;2023-04-09T13:19:54;99361.09;;;16.73;57.09
9672;BME280;4874;43.568;27.824;2023-04-09T13:22:20;99318.47;;;16.39;56.10
9672;BME280;4874;43.568;27.824;2023-04-09T13:24:47;99352.56;;;15.83;56.81
9672;BME280;4874;43.568;27.824;2023-04-09T13:27:14;99347.00;;;16.08;57.70
9672;BME280;4874;43.568;27.824;2023-04-09T13:29:42;99332.13;;;15.98;56.66
9672;BME280;4874;43.568;27.824;2023-04-09T13:32:08;99334.97;;;16.04;57.04
9672;BME280;4874;43.568;27.824;2023-04-09T13:34:37;99332.63;;;15.37;56.46